Time;durP1;ratioP1;P1;durP2;ratioP2;P2;SDS_P1;SDS_P2;PMS_P1;PMS_P2;Temp;Humidity;BMP_temperature;BMP_pressure;BME280_temperature;BME280_humidity;BME280_pressure;Samples;Min_cycle;Max_cycle;Signal;HPM_P1;HPM_P2
2023/02/12 00:02:50;;;;;;;22.40;19.73;;;;;;;7.81;74.80;102226.88;10310065;28;20160;-66
2023/02/12 00:07:52;;;;;;;26.25;20.38;;;;;;;7.86;75.13;102239.03;10314064;28;20478;-65
2023/02/12 00:12:54;;;;;;;23.60;19.05;;;;;;;7.83;75.02;102241.81;10310118;28;20050;-65
2023/02/12 00:17:55;;;;;;;23.55;19.55;;;;;;;7.90;75.44;102258.38;10309265;28;20176;-65
2023/02/12 00:22:56;;;;;;;24.00;19.60;;;;;;;7.91;75.29;102254.78;10311308;28;20049;-66
2023/02/12 00:27:58;;;;;;;25.13;19.67;;;;;;;7.89;75.14;102252.19;10323143;28;20050;-66
2023/02/12 00:32:59;;;;;;;23.98;20.52;;;;;;;7.79;75.23;102240.19;10322763;28;20497;-66
2023/02/12 00:38:01;;;;;;;23.42;19.63;;;;;;;7.82;75.69;102253.38;10311372;28;20129;-66
2023/02/12 00:43:02;;;;;;;21.92;18.75;;;;;;;7.87;75.36;102254.03;10312041;28;20072;-66
2023/02/12 00:48:04;;;;;;;24.73;20.63;;;;;;;7.89;75.29;102246.03;10316613;28;20541;-66
2023/02/12 00:53:07;;;;;;;24.73;20.23;;;;;;;7.89;75.01;102251.34;10309526;28;20267;-67
2023/02/12 00:58:09;;;;;;;28.70;22.20;;;;;;;7.64;75.05;102204.53;10308108;28;20065;-66
2023/02/12 01:03:10;;;;;;;24.88;21.25;;;;;;;7.86;75.47;102246.16;10312533;28;20050;-66
2023/02/12 01:08:13;;;;;;;25.30;21.65;;;;;;;7.81;75.30;102250.72;10311746;28;20591;-66
2023/02/12 01:13:15;;;;;;;25.70;21.88;;;;;;;7.73;75.01;102249.25;10309655;28;20050;-65
2023/02/12 01:18:16;;;;;;;27.45;23.08;;;;;;;7.70;75.20;102244.06;10311888;28;20049;-66
2023/02/12 01:23:18;;;;;;;26.08;22.58;;;;;;;7.70;74.94;102236.13;10307883;28;20060;-66
2023/02/12 01:28:19;;;;;;;25.48;21.75;;;;;;;7.63;75.23;102246.97;10306170;28;20050;-66
2023/02/12 01:33:21;;;;;;;26.45;21.70;;;;;;;7.72;75.44;102250.16;10309581;28;20057;-66
2023/02/12 01:38:22;;;;;;;26.15;22.83;;;;;;;7.71;75.25;102248.44;10312354;28;20045;-65
2023/02/12 01:43:23;;;;;;;26.27;22.33;;;;;;;7.56;75.30;102243.69;10307225;28;20105;-65
2023/02/12 01:48:27;;;;;;;23.98;21.27;;;;;;;7.66;75.33;102255.69;10307251;28;20511;-65
2023/02/12 01:53:35;;;;;;;25.60;21.25;;;;;;;7.65;75.01;102243.34;10304637;28;20338;-66
2023/02/12 01:58:40;;;;;;;27.50;22.10;;;;;;;7.65;75.50;102248.66;10310762;28;20061;-65
2023/02/12 02:03:47;;;;;;;27.35;20.75;;;;;;;7.63;75.48;102250.50;10307491;28;20042;-65
2023/02/12 02:08:48;;;;;;;28.25;21.63;;;;;;;7.62;76.04;102264.66;10309187;28;20050;-65
2023/02/12 02:19:41;;;;;;;26.30;22.20;;;;;;;7.67;75.68;102238.88;10309084;28;20050;-65
2023/02/12 02:25:20;;;;;;;26.35;21.02;;;;;;;7.71;75.38;102232.53;10315895;28;24432;-64
2023/02/12 02:30:33;;;;;;;23.55;20.02;;;;;;;7.71;75.46;102239.63;10307980;28;20043;-65
2023/02/12 02:36:03;;;;;;;24.25;21.35;;;;;;;7.74;75.35;102242.16;10301043;28;20050;-65
2023/02/12 02:41:42;;;;;;;26.00;21.05;;;;;;;7.83;76.09;102238.31;10307917;28;20046;-65
2023/02/12 02:46:50;;;;;;;24.42;21.55;;;;;;;7.89;75.63;102240.72;10302729;28;20129;-65
2023/02/12 02:52:02;;;;;;;27.60;22.25;;;;;;;7.89;75.64;102233.63;10306459;28;20053;-65
2023/02/12 02:57:29;;;;;;;26.95;21.98;;;;;;;7.75;74.88;102218.25;10330171;28;20428;-65
2023/02/12 03:02:34;;;;;;;25.15;21.02;;;;;;;7.78;75.71;102236.69;10316771;28;20046;-64
2023/02/12 03:07:43;;;;;;;24.55;21.90;;;;;;;7.61;75.81;102221.41;10313356;28;20042;-64
2023/02/12 03:12:51;;;;;;;23.95;21.38;;;;;;;7.78;75.82;102247.28;10312715;28;20045;-66
2023/02/12 03:17:55;;;;;;;25.65;22.15;;;;;;;7.84;75.50;102240.03;10317570;28;20289;-66
2023/02/12 03:23:03;;;;;;;28.40;22.77;;;;;;;7.81;75.68;102243.66;10313425;28;20085;-65
2023/02/12 03:28:12;;;;;;;26.30;22.30;;;;;;;7.82;75.61;102245.41;10312978;28;20050;-64
2023/02/12 03:33:32;;;;;;;27.52;22.85;;;;;;;7.83;75.92;102240.97;10314397;28;20051;-65
2023/02/12 03:38:44;;;;;;;24.15;21.42;;;;;;;7.74;75.92;102237.72;10308732;28;20050;-64
2023/02/12 03:43:53;;;;;;;27.27;21.65;;;;;;;7.61;75.61;102209.91;10308923;28;20180;-66
2023/02/12 03:49:21;;;;;;;27.75;23.02;;;;;;;7.83;75.55;102246.25;10308806;28;20488;-65
2023/02/12 03:54:23;;;;;;;25.98;21.77;;;;;;;7.83;76.02;102251.56;10309415;28;20082;-66
2023/02/12 03:59:25;;;;;;;26.40;22.10;;;;;;;7.84;76.05;102258.59;10309883;28;20041;-66
2023/02/12 04:04:27;;;;;;;24.73;20.83;;;;;;;7.74;75.52;102237.72;10312857;28;20057;-66
2023/02/12 04:09:30;;;;;;;26.25;23.30;;;;;;;7.76;76.00;102254.44;10312954;28;20081;-66
2023/02/12 04:14:59;;;;;;;24.83;22.02;;;;;;;7.79;75.05;102267.59;10316900;28;20047;-64
2023/02/12 04:20:28;;;;;;;26.45;23.42;;;;;;;7.74;75.18;102269.53;10309780;28;20813;-66
2023/02/12 04:25:59;;;;;;;28.75;22.60;;;;;;;7.72;75.31;102279.34;10314711;28;20421;-64
2023/02/12 04:31:07;;;;;;;24.27;21.48;;;;;;;7.56;75.89;102259.59;10316990;28;20046;-66
2023/02/12 04:36:22;;;;;;;25.75;22.83;;;;;;;7.68;75.64;102275.06;10313529;28;20042;-65
2023/02/12 04:41:24;;;;;;;26.37;21.17;;;;;;;7.34;75.35;102217.09;10315082;28;20069;-66
2023/02/12 04:46:26;;;;;;;24.27;21.33;;;;;;;7.72;75.84;102287.28;10311884;28;20054;-65
2023/02/12 04:51:27;;;;;;;25.35;21.45;;;;;;;7.72;75.71;102284.63;10314705;28;20050;-66
2023/02/12 04:56:29;;;;;;;25.05;22.20;;;;;;;7.68;75.50;102283.00;10313183;28;20046;-66
2023/02/12 05:01:33;;;;;;;28.10;22.42;;;;;;;7.66;75.67;102276.91;10316407;28;20118;-65
2023/02/12 05:06:36;;;;;;;24.75;21.88;;;;;;;7.76;75.64;102288.03;10312886;28;20078;-66
2023/02/12 05:11:38;;;;;;;26.80;22.17;;;;;;;7.76;75.65;102288.91;10313447;28;20053;-64
2023/02/12 05:16:39;;;;;;;26.23;22.95;;;;;;;7.76;75.94;102278.31;10308661;28;20176;-66
2023/02/12 05:21:40;;;;;;;28.23;24.13;;;;;;;7.77;75.86;102285.31;10324137;28;20056;-66
2023/02/12 05:26:42;;;;;;;29.05;23.75;;;;;;;7.81;76.23;102274.59;10320197;28;20151;-65
2023/02/12 05:31:44;;;;;;;25.88;22.10;;;;;;;7.82;76.03;102271.91;10309315;28;20669;-66
2023/02/12 05:36:45;;;;;;;29.33;23.95;;;;;;;7.91;76.11;102276.00;10310648;28;20681;-66
2023/02/12 05:41:47;;;;;;;30.50;24.48;;;;;;;7.77;76.41;102266.75;10306822;28;20038;-66
2023/02/12 05:46:48;;;;;;;31.35;25.15;;;;;;;7.83;76.90;102288.69;10308366;28;20050;-66
2023/02/12 05:51:50;;;;;;;32.95;26.48;;;;;;;7.88;76.77;102294.66;10305940;28;20461;-65
2023/02/12 05:56:51;;;;;;;34.35;26.00;;;;;;;7.91;76.82;102287.47;10309652;28;20125;-66
2023/02/12 06:01:53;;;;;;;32.58;25.80;;;;;;;7.85;76.73;102286.81;10306580;28;20120;-65
2023/02/12 06:06:55;;;;;;;30.80;25.98;;;;;;;7.85;76.82;102293.03;10305038;28;20045;-66
2023/02/12 06:11:56;;;;;;;32.70;26.55;;;;;;;7.85;77.19;102292.13;10307668;28;20046;-64
2023/02/12 06:16:58;;;;;;;33.08;26.70;;;;;;;7.92;76.81;102298.94;10306794;28;20128;-65
2023/02/12 06:21:59;;;;;;;31.40;25.33;;;;;;;7.87;76.99;102300.91;10306973;28;20054;-66
2023/02/12 06:27:00;;;;;;;32.67;26.10;;;;;;;7.71;76.70;102284.69;10310624;28;20421;-66
2023/02/12 06:32:02;;;;;;;32.03;24.90;;;;;;;7.77;77.45;102317.13;10315023;28;20057;-66
2023/02/12 06:37:03;;;;;;;32.15;24.63;;;;;;;7.78;77.26;102320.66;10314413;28;20074;-65
2023/02/12 06:42:05;;;;;;;26.50;22.30;;;;;;;7.72;76.72;102320.88;10319711;28;20070;-65
2023/02/12 06:47:06;;;;;;;27.70;22.67;;;;;;;7.66;77.45;102329.91;10320518;28;20056;-66
2023/02/12 06:52:07;;;;;;;26.90;23.58;;;;;;;7.58;77.72;102318.69;10320476;28;20081;-65
2023/02/12 06:57:09;;;;;;;26.42;23.63;;;;;;;7.57;79.23;102341.69;10367293;28;20085;-66
2023/02/12 07:02:10;;;;;;;30.17;23.15;;;;;;;7.48;80.65;102320.81;10366777;28;20057;-66
2023/02/12 07:07:12;;;;;;;25.63;22.83;;;;;;;7.38;81.99;102330.84;10344527;28;20046;-64
2023/02/12 07:12:13;;;;;;;30.48;24.38;;;;;;;7.46;82.84;102342.97;10336545;28;20061;-65
2023/02/12 07:17:14;;;;;;;28.83;24.75;;;;;;;7.44;83.23;102351.84;10342346;28;20065;-66
2023/02/12 07:22:16;;;;;;;27.42;22.88;;;;;;;7.42;83.84;102353.69;10333626;28;20696;-66
2023/02/12 07:27:17;;;;;;;27.25;24.35;;;;;;;7.37;84.72;102352.09;10324956;28;20053;-66
2023/02/12 07:32:19;;;;;;;27.33;24.17;;;;;;;7.36;85.16;102353.03;10320790;28;20046;-66
2023/02/12 07:37:21;;;;;;;26.23;22.75;;;;;;;7.30;85.46;102354.09;10320000;28;20050;-66
2023/02/12 07:42:23;;;;;;;27.27;23.00;;;;;;;7.29;85.34;102346.22;10319160;28;20468;-67
2023/02/12 07:47:24;;;;;;;27.52;23.55;;;;;;;7.33;85.76;102361.94;10323638;28;20050;-67
2023/02/12 07:52:25;;;;;;;27.92;24.00;;;;;;;7.41;85.64;102365.19;10331815;28;20549;-67
2023/02/12 07:57:27;;;;;;;27.05;24.10;;;;;;;7.50;85.25;102368.47;10319348;28;20050;-66
2023/02/12 08:02:28;;;;;;;28.83;24.35;;;;;;;7.48;85.50;102365.88;10315799;28;20058;-67
2023/02/12 08:07:29;;;;;;;28.40;25.27;;;;;;;7.50;85.44;102371.13;10313814;28;20364;-66
2023/02/12 08:12:31;;;;;;;31.35;26.23;;;;;;;7.57;85.24;102381.47;10318989;28;20050;-66
2023/02/12 08:17:33;;;;;;;27.52;23.88;;;;;;;7.51;85.61;102364.91;10315986;28;20593;-67
2023/02/12 08:22:34;;;;;;;28.70;25.17;;;;;;;7.64;85.37;102387.44;10314981;28;20049;-64
2023/02/12 08:27:36;;;;;;;28.40;25.10;;;;;;;7.61;85.62;102379.56;10310489;28;20114;-65
2023/02/12 08:32:37;;;;;;;27.20;24.38;;;;;;;7.71;85.30;102388.94;10310434;28;20114;-66
2023/02/12 08:37:38;;;;;;;29.88;25.80;;;;;;;7.64;85.50;102378.59;10312392;28;20072;-67
2023/02/12 08:42:40;;;;;;;36.03;29.02;;;;;;;7.77;85.13;102396.66;10307046;28;20128;-66
2023/02/12 08:47:41;;;;;;;35.05;28.20;;;;;;;7.70;84.49;102373.97;10308651;28;20132;-66
2023/02/12 08:52:42;;;;;;;32.13;28.25;;;;;;;7.85;84.54;102395.53;10312405;28;20183;-67
2023/02/12 08:57:44;;;;;;;33.63;27.80;;;;;;;7.84;84.33;102399.13;10313120;28;20058;-66
2023/02/12 09:02:47;;;;;;;35.15;29.77;;;;;;;7.64;86.11;102383.91;10311491;28;20049;-66
2023/02/12 09:07:52;;;;;;;35.20;30.08;;;;;;;7.79;86.10;102405.47;10311453;28;20057;-66
2023/02/12 09:12:53;;;;;;;38.72;31.67;;;;;;;7.74;85.96;102402.09;10314310;28;20488;-67
2023/02/12 09:17:55;;;;;;;38.92;30.23;;;;;;;7.87;85.29;102396.38;10314447;28;20054;-66
2023/02/12 09:22:57;;;;;;;38.42;31.63;;;;;;;7.96;84.79;102401.34;10312799;28;20064;-65
2023/02/12 09:28:02;;;;;;;39.40;31.17;;;;;;;8.13;84.40;102403.41;10318433;28;20058;-66
2023/02/12 09:33:05;;;;;;;36.50;31.27;;;;;;;8.30;83.39;102410.72;10311131;28;20123;-66
2023/02/12 09:38:07;;;;;;;41.95;32.72;;;;;;;8.35;82.84;102407.91;10308591;28;20601;-66
2023/02/12 09:43:43;;;;;;;44.50;33.22;;;;;;;8.36;82.54;102413.19;10306183;28;20050;-67
2023/02/12 09:48:54;;;;;;;47.97;36.35;;;;;;;8.31;83.19;102407.16;10309137;28;20077;-66
2023/02/12 09:54:03;;;;;;;43.50;33.63;;;;;;;8.27;83.32;102408.19;10309235;28;20050;-66
2023/02/12 09:59:07;;;;;;;48.00;36.92;;;;;;;8.32;83.47;102411.56;10311368;28;20080;-67
2023/02/12 10:04:09;;;;;;;45.47;35.47;;;;;;;8.12;83.76;102381.31;10308724;28;20429;-64
2023/02/12 10:09:52;;;;;;;48.08;37.90;;;;;;;8.47;82.97;102413.69;10309427;28;20066;-66
2023/02/12 10:15:00;;;;;;;44.80;35.50;;;;;;;8.53;82.68;102415.25;10312472;28;20088;-66
2023/02/12 10:20:26;;;;;;;47.28;37.42;;;;;;;8.65;82.43;102427.19;10312519;28;20046;-66
2023/02/12 10:25:53;;;;;;;44.92;36.47;;;;;;;8.90;81.26;102416.47;10314076;28;20045;-65
2023/02/12 10:31:18;;;;;;;51.03;37.42;;;;;;;9.05;79.82;102415.00;10308183;28;20050;-65
2023/02/12 10:36:43;;;;;;;50.47;37.83;;;;;;;9.61;78.11;102424.28;10308461;28;20057;-66
2023/02/12 10:41:48;;;;;;;;;;;;;;;9.81;76.21;102407.47;10307936;28;20050;-65
2023/02/12 10:46:50;;;;;;;46.78;37.63;;;;;;;10.01;75.46;102400.41;10302458;28;19969;-66
2023/02/12 10:52:32;;;;;;;46.40;35.63;;;;;;;10.15;74.97;102392.69;10309535;28;20474;-65
2023/02/12 10:57:38;;;;;;;40.20;31.90;;;;;;;11.09;71.89;102390.16;10272068;28;20057;-66
2023/02/12 11:02:39;;;;;;;35.65;28.05;;;;;;;12.06;67.43;102387.94;10305777;28;20144;-66
2023/02/12 11:07:49;;;;;;;36.90;30.35;;;;;;;11.97;67.55;102373.28;10308603;28;20044;-66
2023/02/12 11:12:52;;;;;;;33.47;27.45;;;;;;;12.25;66.43;102358.47;10310643;28;20054;-67
2023/02/12 11:18:24;;;;;;;34.28;26.42;;;;;;;12.20;66.08;102363.19;10314128;28;20537;-66
2023/02/12 11:23:32;;;;;;;31.80;27.30;;;;;;;12.12;66.01;102354.75;10313420;28;20052;-66
2023/02/12 11:28:35;;;;;;;33.20;28.00;;;;;;;12.01;66.31;102364.19;10336632;28;20037;-67
2023/02/12 11:33:37;;;;;;;29.05;24.63;;;;;;;11.62;67.89;102359.94;10373678;28;20046;-67
2023/02/12 11:38:48;;;;;;;32.38;26.52;;;;;;;11.27;70.89;102357.28;10370847;28;20053;-66
2023/02/12 11:43:51;;;;;;;27.75;23.17;;;;;;;11.20;71.02;102347.84;10320475;28;20413;-66
2023/02/12 11:48:55;;;;;;;29.90;24.05;;;;;;;11.13;71.05;102343.75;10317762;28;20126;-67
2023/02/12 11:54:01;;;;;;;30.43;25.57;;;;;;;11.18;71.16;102330.19;10317208;28;20144;-67
2023/02/12 11:59:16;;;;;;;31.38;25.17;;;;;;;11.27;71.00;102330.63;10312996;28;20129;-66
2023/02/12 12:04:21;;;;;;;34.78;28.27;;;;;;;11.38;70.60;102331.84;10311898;28;20621;-66
2023/02/12 12:09:28;;;;;;;34.15;27.33;;;;;;;11.47;69.99;102332.25;10313932;28;20424;-67
2023/02/12 12:19:51;;;;;;;33.72;27.20;;;;;;;11.49;70.22;102324.19;10308811;28;20124;-67
2023/02/12 12:20:02;;;;;;;36.53;27.55;;;;;;;11.32;70.51;102315.22;10311304;28;20536;-67
2023/02/12 12:25:21;;;;;;;32.60;26.17;;;;;;;11.37;70.68;102316.81;10311223;28;20105;-67
2023/02/12 12:30:54;;;;;;;31.55;25.67;;;;;;;11.50;70.06;102309.91;10309690;28;20054;-67
2023/02/12 12:36:13;;;;;;;31.45;26.30;;;;;;;11.62;69.87;102295.94;10314373;28;20184;-65
2023/02/12 12:41:30;;;;;;;29.30;26.10;;;;;;;11.71;69.12;102302.59;10335624;28;20069;-66
2023/02/12 12:46:53;;;;;;;29.25;24.60;;;;;;;12.26;68.02;102298.75;10312380;28;20128;-66
2023/02/12 12:52:32;;;;;;;33.03;26.08;;;;;;;13.14;64.54;102290.28;10313757;28;20046;-66
2023/02/12 12:57:50;;;;;;;28.80;24.35;;;;;;;13.37;62.10;102289.78;10308868;28;20050;-69
2023/02/12 13:03:15;;;;;;;27.90;24.25;;;;;;;13.16;63.04;102288.34;10313228;28;20046;-64
2023/02/12 13:08:43;;;;;;;27.83;24.05;;;;;;;13.12;63.06;102286.81;10318140;28;20062;-67
2023/02/12 13:13:49;;;;;;;25.85;22.65;;;;;;;13.28;62.67;102282.25;10313472;28;20494;-68
2023/02/12 13:19:19;;;;;;;26.92;22.73;;;;;;;13.22;62.59;102285.31;10309679;28;20100;-67
2023/02/12 13:24:38;;;;;;;20.23;18.10;;;;;;;13.82;59.85;102272.81;10307818;28;20053;-68
2023/02/12 13:29:45;;;;;;;18.83;16.80;;;;;;;14.71;57.43;102269.81;10306762;28;20062;-66
2023/02/12 13:34:47;;;;;;;18.33;15.60;;;;;;;17.35;48.89;102258.25;10305870;28;20050;-67
2023/02/12 13:39:50;;;;;;;20.75;17.25;;;;;;;18.86;45.35;102252.41;10309138;28;20077;-67
2023/02/12 13:45:20;;;;;;;15.75;14.07;;;;;;;20.43;41.32;102259.47;10318247;28;20052;-68
2023/02/12 13:50:43;;;;;;;15.73;14.13;;;;;;;23.01;35.29;102245.59;10308059;28;20412;-65
2023/02/12 13:56:11;;;;;;;15.32;13.82;;;;;;;19.39;41.93;102248.78;10308585;28;20053;-66
2023/02/12 14:01:42;;;;;;;14.95;13.45;;;;;;;16.43;48.41;102251.63;10308281;28;20061;-67
2023/02/12 14:06:56;;;;;;;15.95;14.25;;;;;;;14.67;54.28;102241.53;10311868;28;20054;-67
2023/02/12 14:12:05;;;;;;;17.30;15.55;;;;;;;13.81;57.50;102257.72;10308764;28;20377;-67
2023/02/12 14:17:30;;;;;;;15.55;13.82;;;;;;;13.13;60.08;102261.78;10312540;28;20640;-66
2023/02/12 14:22:31;;;;;;;15.35;13.05;;;;;;;12.50;61.69;102227.09;10299019;28;20060;-65
2023/02/12 14:27:44;;;;;;;15.73;13.73;;;;;;;12.31;63.36;102254.00;10308101;28;20617;-66
2023/02/12 14:32:56;;;;;;;15.18;13.40;;;;;;;12.06;64.94;102253.63;10304551;28;20052;-65
2023/02/12 14:38:00;;;;;;;15.55;13.05;;;;;;;11.90;65.82;102259.75;10306299;28;20572;-68
2023/02/12 14:43:20;;;;;;;15.43;13.63;;;;;;;11.71;66.13;102248.34;10305913;28;20394;-68
2023/02/12 14:48:47;;;;;;;15.98;12.50;;;;;;;11.63;66.17;102249.66;10311894;28;20129;-67
2023/02/12 14:53:52;;;;;;;12.70;11.23;;;;;;;11.53;66.64;102253.75;10312276;28;20058;-65
2023/02/12 14:58:57;;;;;;;13.10;10.27;;;;;;;11.56;66.24;102239.34;10316637;28;20644;-68
2023/02/12 15:04:10;;;;;;;12.35;10.80;;;;;;;11.89;65.54;102258.06;10317617;28;20149;-67
2023/02/12 15:09:20;;;;;;;14.10;11.70;;;;;;;11.79;65.80;102241.66;10325877;28;20140;-69
2023/02/12 15:14:32;;;;;;;12.68;10.57;;;;;;;11.71;66.47;102248.34;10318936;28;20125;-68
2023/02/12 15:20:01;;;;;;;13.85;10.55;;;;;;;11.52;66.72;102249.34;10319566;28;20063;-62
2023/02/12 15:25:24;;;;;;;12.32;9.82;;;;;;;11.32;67.85;102235.25;10317377;28;20046;-62
2023/02/12 15:30:30;;;;;;;13.52;10.57;;;;;;;11.21;68.28;102228.75;10313464;28;20046;-62
2023/02/12 15:35:42;;;;;;;11.80;9.60;;;;;;;11.11;68.64;102229.22;10316102;28;20050;-62
2023/02/12 15:40:54;;;;;;;14.60;10.93;;;;;;;11.05;69.34;102226.00;10318776;28;20054;-63
2023/02/12 15:45:56;;;;;;;13.73;10.60;;;;;;;11.03;69.80;102227.88;10311075;28;20523;-64
2023/02/12 15:51:07;;;;;;;16.92;13.10;;;;;;;10.96;69.98;102220.22;10310610;28;20649;-65
2023/02/12 15:56:14;;;;;;;28.63;20.38;;;;;;;10.96;70.09;102216.69;10332447;28;20056;-61
2023/02/12 16:01:23;;;;;;;19.77;15.20;;;;;;;10.74;70.77;102201.78;10327619;28;20214;-62
2023/02/12 16:06:28;;;;;;;20.58;14.82;;;;;;;10.68;71.55;102198.56;10314294;28;20046;-62
2023/02/12 16:11:31;;;;;;;13.68;10.48;;;;;;;10.62;71.66;102189.06;10306009;28;20100;-61
2023/02/12 16:16:59;;;;;;;15.82;12.48;;;;;;;10.61;72.29;102220.19;10306628;28;20057;-61
2023/02/12 16:22:06;;;;;;;18.88;16.23;;;;;;;10.49;72.80;102215.44;10317316;28;20045;-63
2023/02/12 16:27:17;;;;;;;18.90;14.35;;;;;;;10.48;73.07;102208.41;10321472;28;20112;-61
2023/02/12 16:32:42;;;;;;;19.67;15.13;;;;;;;10.45;73.53;102219.22;10316174;28;20142;-65
2023/02/12 16:37:49;;;;;;;16.85;12.65;;;;;;;10.37;73.87;102226.69;10295665;28;20073;-62
2023/02/12 16:43:02;;;;;;;15.50;12.18;;;;;;;10.35;74.01;102223.25;10308949;28;20046;-63
2023/02/12 16:48:07;;;;;;;17.27;13.25;;;;;;;10.31;74.45;102233.13;10301585;28;20048;-63
2023/02/12 16:53:31;;;;;;;18.98;14.75;;;;;;;10.33;74.44;102235.72;10310200;28;20471;-62
2023/02/12 16:58:33;;;;;;;15.10;13.02;;;;;;;10.25;74.52;102213.00;10302321;28;20461;-62
2023/02/12 17:03:36;;;;;;;16.15;12.23;;;;;;;10.31;74.97;102237.59;10305173;28;20200;-61
2023/02/12 17:08:37;;;;;;;17.02;12.82;;;;;;;10.22;75.13;102239.78;10302829;28;20868;-61
2023/02/12 17:13:39;;;;;;;17.33;12.73;;;;;;;10.22;75.41;102244.22;10311850;28;20046;-62
2023/02/12 17:18:40;;;;;;;13.40;11.48;;;;;;;10.30;75.25;102246.50;10314374;28;20103;-62
2023/02/12 17:23:42;;;;;;;14.13;11.32;;;;;;;10.24;74.93;102248.53;10308219;28;20777;-61
2023/02/12 17:28:44;;;;;;;16.25;12.60;;;;;;;10.22;75.39;102253.09;10311099;28;20391;-62
2023/02/12 17:33:45;;;;;;;16.67;13.15;;;;;;;10.17;75.24;102252.44;10316312;28;20258;-63
2023/02/12 17:38:46;;;;;;;15.52;11.82;;;;;;;10.16;75.64;102260.47;10307335;28;20053;-63
2023/02/12 17:43:48;;;;;;;19.90;14.23;;;;;;;10.11;76.11;102252.72;10311487;28;20069;-62
2023/02/12 17:48:49;;;;;;;15.38;12.38;;;;;;;10.06;76.63;102254.75;10311628;28;20049;-63
2023/02/12 17:53:51;;;;;;;16.55;13.23;;;;;;;10.07;76.59;102261.75;10310558;28;20064;-61
2023/02/12 17:58:53;;;;;;;13.85;12.25;;;;;;;10.08;76.65;102258.19;10306529;28;20251;-60
2023/02/12 18:03:56;;;;;;;13.60;11.75;;;;;;;10.05;76.83;102266.31;10316717;28;20717;-62
2023/02/12 18:09:00;;;;;;;12.73;10.65;;;;;;;10.00;77.38;102260.34;10311281;28;20519;-62
2023/02/12 18:14:01;;;;;;;13.75;10.05;;;;;;;9.97;77.62;102265.78;10304146;28;20064;-63
2023/02/12 18:19:04;;;;;;;10.75;9.07;;;;;;;9.95;77.73;102267.66;10309336;28;20471;-62
2023/02/12 18:24:06;;;;;;;10.82;9.55;;;;;;;9.89;77.66;102252.84;10311641;28;20482;-61
2023/02/12 18:29:07;;;;;;;10.70;9.25;;;;;;;10.02;77.42;102269.09;10312572;28;20358;-61
2023/02/12 18:34:08;;;;;;;13.05;11.80;;;;;;;9.94;77.32;102260.59;10317056;28;20172;-63
2023/02/12 18:39:10;;;;;;;10.30;7.38;;;;;;;9.98;77.08;102267.53;10318811;28;20616;-63
2023/02/12 18:44:12;;;;;;;7.50;6.70;;;;;;;9.95;77.17;102265.00;10321273;28;20076;-63
2023/02/12 18:49:14;;;;;;;10.88;8.50;;;;;;;10.01;76.87;102272.69;10311009;28;20518;-62
2023/02/12 18:54:16;;;;;;;10.20;8.48;;;;;;;9.98;76.91;102273.69;10314245;28;20133;-62
2023/02/12 18:59:19;;;;;;;6.45;5.78;;;;;;;9.90;76.88;102258.09;10307372;28;20073;-62
2023/02/12 19:04:22;;;;;;;7.32;6.60;;;;;;;9.91;77.35;102270.47;10311054;28;20085;-63
2023/02/12 19:09:25;;;;;;;6.90;6.20;;;;;;;9.94;76.93;102268.59;10331119;28;20604;-62
2023/02/12 19:14:27;;;;;;;7.07;5.95;;;;;;;9.89;77.24;102268.78;10313757;28;20081;-61
2023/02/12 19:19:28;;;;;;;6.65;6.05;;;;;;;9.90;77.11;102266.06;10302992;28;20057;-62
2023/02/12 19:24:31;;;;;;;7.78;6.82;;;;;;;9.83;77.02;102263.75;10309963;28;20080;-62
2023/02/12 19:29:46;;;;;;;7.18;6.47;;;;;;;9.85;77.13;102286.69;10311338;28;20053;-60
2023/02/12 19:34:48;;;;;;;8.90;6.78;;;;;;;9.82;77.48;102268.22;10307293;28;20606;-61
2023/02/12 19:39:49;;;;;;;7.43;6.68;;;;;;;9.57;77.48;102247.19;10307489;28;20120;-63
2023/02/12 19:44:51;;;;;;;7.35;6.38;;;;;;;9.67;77.82;102271.59;10314932;28;20066;-63
2023/02/12 19:49:52;;;;;;;8.13;6.32;;;;;;;9.68;77.71;102271.50;10316457;28;20077;-63
2023/02/12 19:54:54;;;;;;;8.13;7.32;;;;;;;9.72;77.71;102272.22;10316178;28;20738;-68
2023/02/12 19:59:55;;;;;;;7.55;6.75;;;;;;;9.75;77.63;102277.41;10311319;28;20529;-63
2023/02/12 20:04:56;;;;;;;7.35;6.57;;;;;;;9.65;77.88;102265.44;10316924;28;20080;-64
2023/02/12 20:09:58;;;;;;;6.97;6.28;;;;;;;9.62;77.93;102266.44;10321783;28;20141;-64
2023/02/12 20:15:01;;;;;;;8.88;7.97;;;;;;;9.70;78.02;102274.09;10324651;28;20460;-65
2023/02/12 20:20:04;;;;;;;11.45;10.25;;;;;;;9.70;77.79;102263.47;10319097;28;20049;-65
2023/02/12 20:25:06;;;;;;;10.27;8.93;;;;;;;9.69;77.76;102275.88;10320543;28;20067;-64
2023/02/12 20:30:08;;;;;;;7.88;7.07;;;;;;;9.66;77.85;102268.03;10356241;28;20132;-64
2023/02/12 20:35:11;;;;;;;9.23;8.18;;;;;;;9.63;77.44;102260.19;10353335;28;20408;-64
2023/02/12 20:40:13;;;;;;;8.75;7.72;;;;;;;9.65;77.70;102270.75;10340496;28;20152;-65
2023/02/12 20:45:14;;;;;;;10.65;9.55;;;;;;;9.69;77.64;102293.63;10333119;28;20417;-65
2023/02/12 20:50:15;;;;;;;8.85;7.95;;;;;;;9.67;77.70;102284.88;10307882;28;20078;-69
2023/02/12 20:55:17;;;;;;;8.55;7.70;;;;;;;9.55;78.06;102287.13;10325495;28;20057;-68
2023/02/12 21:00:19;;;;;;;9.93;8.35;;;;;;;9.58;78.14;102291.47;10313531;28;20058;-64
2023/02/12 21:05:20;;;;;;;10.95;9.88;;;;;;;9.51;78.17;102296.16;10322028;28;20470;-66
2023/02/12 21:10:22;;;;;;;10.27;9.27;;;;;;;9.53;78.04;102291.66;10315385;28;20289;-64
2023/02/12 21:15:23;;;;;;;10.30;9.07;;;;;;;9.57;78.07;102308.34;10321842;28;20050;-63
2023/02/12 21:20:25;;;;;;;11.68;9.40;;;;;;;9.45;78.22;102296.44;10314564;28;20054;-65
2023/02/12 21:25:26;;;;;;;10.27;9.18;;;;;;;9.53;78.01;102302.28;10317074;28;20136;-64
2023/02/12 21:30:28;;;;;;;10.25;9.23;;;;;;;9.49;78.00;102308.66;10311709;28;20368;-65
2023/02/12 21:35:29;;;;;;;11.05;9.35;;;;;;;9.47;77.95;102321.19;10307967;28;20475;-67
2023/02/12 21:40:30;;;;;;;10.20;9.15;;;;;;;9.47;78.16;102318.53;10319153;28;20105;-67
2023/02/12 21:45:32;;;;;;;11.70;10.60;;;;;;;9.46;77.97;102323.91;10307917;28;20053;-65
2023/02/12 21:50:34;;;;;;;10.30;9.23;;;;;;;9.47;77.97;102322.94;10311459;28;20536;-66
2023/02/12 21:55:36;;;;;;;10.50;9.40;;;;;;;9.34;77.88;102314.66;10304895;28;20550;-64
2023/02/12 22:00:38;;;;;;;10.38;9.38;;;;;;;9.44;77.89;102326.59;10311666;28;20085;-65
2023/02/12 22:05:39;;;;;;;9.02;8.13;;;;;;;9.45;77.34;102316.84;10314785;28;20130;-65
2023/02/12 22:10:41;;;;;;;9.07;7.97;;;;;;;9.27;77.31;102313.19;10312909;28;20153;-66
2023/02/12 22:15:42;;;;;;;9.35;8.45;;;;;;;9.28;77.38;102314.91;10313842;28;20140;-67
2023/02/12 22:20:43;;;;;;;9.80;8.15;;;;;;;9.23;77.22;102317.75;10329133;28;20057;-66
2023/02/12 22:25:45;;;;;;;8.55;7.68;;;;;;;9.30;77.04;102323.69;10320903;28;20061;-65
2023/02/12 22:30:46;;;;;;;8.13;6.95;;;;;;;9.27;76.39;102311.38;10320793;28;20151;-64
2023/02/12 22:35:48;;;;;;;7.18;6.47;;;;;;;9.22;76.47;102318.69;10317285;28;20064;-66
2023/02/12 22:40:51;;;;;;;6.78;6.07;;;;;;;9.25;76.81;102328.31;10314746;28;20076;-67
2023/02/12 22:45:53;;;;;;;7.43;6.33;;;;;;;9.12;76.90;102318.19;10315887;28;20133;-66
2023/02/12 22:50:56;;;;;;;7.00;6.30;;;;;;;9.27;76.99;102337.94;10315886;28;20504;-64
2023/02/12 22:56:01;;;;;;;7.00;6.32;;;;;;;9.27;76.97;102339.75;10313618;28;20046;-68
2023/02/12 23:01:08;;;;;;;7.45;6.63;;;;;;;9.27;76.73;102345.06;10310177;28;20054;-64
2023/02/12 23:06:15;;;;;;;6.93;6.30;;;;;;;9.17;76.64;102334.81;10306219;28;20519;-65
2023/02/12 23:11:18;;;;;;;6.75;6.03;;;;;;;9.19;76.45;102343.59;10308144;28;20624;-69
2023/02/12 23:16:19;;;;;;;6.70;6.05;;;;;;;9.19;76.27;102332.97;10307691;28;20050;-67
2023/02/12 23:21:21;;;;;;;6.90;5.90;;;;;;;9.17;76.01;102337.47;10310216;28;20822;-71